sensor_id;sensor_type;location;lat;lon;timestamp;P1;durP1;ratioP1;P2;durP2;ratioP2
5823;SDS011;2938;52.254;12.988;2022-07-24T00:01:36;4.03;;;1.98;;
5823;SDS011;2938;52.254;12.988;2022-07-24T00:04:02;5.38;;;1.88;;
5823;SDS011;2938;52.254;12.988;2022-07-24T00:06:29;1.88;;;1.77;;
5823;SDS011;2938;52.254;12.988;2022-07-24T00:08:55;4.32;;;2.60;;
5823;SDS011;2938;52.254;12.988;2022-07-24T00:11:23;2.30;;;2.10;;
5823;SDS011;2938;52.254;12.988;2022-07-24T00:13:49;2.50;;;2.03;;
5823;SDS011;2938;52.254;12.988;2022-07-24T00:16:16;2.50;;;2.30;;
5823;SDS011;2938;52.254;12.988;2022-07-24T00:18:42;12.38;;;2.42;;
5823;SDS011;2938;52.254;12.988;2022-07-24T00:21:09;2.22;;;1.60;;
5823;SDS011;2938;52.254;12.988;2022-07-24T00:23:35;2.63;;;2.03;;
5823;SDS011;2938;52.254;12.988;2022-07-24T00:26:02;9.05;;;2.03;;
5823;SDS011;2938;52.254;12.988;2022-07-24T00:28:30;2.38;;;2.17;;
5823;SDS011;2938;52.254;12.988;2022-07-24T00:30:56;2.35;;;2.15;;
5823;SDS011;2938;52.254;12.988;2022-07-24T00:33:23;1.75;;;1.65;;
5823;SDS011;2938;52.254;12.988;2022-07-24T00:35:49;3.50;;;2.25;;
5823;SDS011;2938;52.254;12.988;2022-07-24T00:38:15;3.33;;;2.00;;
5823;SDS011;2938;52.254;12.988;2022-07-24T00:40:42;2.05;;;1.85;;
5823;SDS011;2938;52.254;12.988;2022-07-24T00:43:08;2.88;;;2.47;;
5823;SDS011;2938;52.254;12.988;2022-07-24T00:45:36;3.22;;;2.00;;
5823;SDS011;2938;52.254;12.988;2022-07-24T00:48:03;2.15;;;2.05;;
5823;SDS011;2938;52.254;12.988;2022-07-24T00:50:30;1.88;;;1.77;;
5823;SDS011;2938;52.254;12.988;2022-07-24T00:52:56;2.63;;;2.15;;
5823;SDS011;2938;52.254;12.988;2022-07-24T00:55:23;3.55;;;2.03;;
5823;SDS011;2938;52.254;12.988;2022-07-24T00:57:50;3.17;;;1.98;;
5823;SDS011;2938;52.254;12.988;2022-07-24T01:00:16;1.58;;;1.48;;
5823;SDS011;2938;52.254;12.988;2022-07-24T01:02:45;4.30;;;2.75;;
5823;SDS011;2938;52.254;12.988;2022-07-24T01:05:12;3.65;;;1.90;;
5823;SDS011;2938;52.254;12.988;2022-07-24T01:07:39;3.40;;;2.25;;
5823;SDS011;2938;52.254;12.988;2022-07-24T01:10:06;6.38;;;2.13;;
5823;SDS011;2938;52.254;12.988;2022-07-24T01:12:34;2.30;;;2.10;;
5823;SDS011;2938;52.254;12.988;2022-07-24T01:15:01;3.58;;;2.50;;
5823;SDS011;2938;52.254;12.988;2022-07-24T01:17:29;5.25;;;2.72;;
5823;SDS011;2938;52.254;12.988;2022-07-24T01:19:57;2.90;;;1.83;;
5823;SDS011;2938;52.254;12.988;2022-07-24T01:22:25;3.03;;;2.20;;
5823;SDS011;2938;52.254;12.988;2022-07-24T01:24:52;5.13;;;2.47;;
5823;SDS011;2938;52.254;12.988;2022-07-24T01:27:18;3.92;;;2.30;;
5823;SDS011;2938;52.254;12.988;2022-07-24T01:29:45;2.70;;;2.47;;
5823;SDS011;2938;52.254;12.988;2022-07-24T01:32:11;3.05;;;1.95;;
5823;SDS011;2938;52.254;12.988;2022-07-24T01:34:38;2.47;;;1.95;;
5823;SDS011;2938;52.254;12.988;2022-07-24T01:37:04;2.63;;;2.13;;
5823;SDS011;2938;52.254;12.988;2022-07-24T01:39:32;2.03;;;1.85;;
5823;SDS011;2938;52.254;12.988;2022-07-24T01:41:58;2.67;;;2.17;;
5823;SDS011;2938;52.254;12.988;2022-07-24T01:44:25;2.22;;;2.03;;
5823;SDS011;2938;52.254;12.988;2022-07-24T01:46:51;5.28;;;2.50;;
5823;SDS011;2938;52.254;12.988;2022-07-24T01:49:18;2.30;;;2.10;;
5823;SDS011;2938;52.254;12.988;2022-07-24T01:51:44;4.00;;;2.20;;
5823;SDS011;2938;52.254;12.988;2022-07-24T01:54:10;2.78;;;2.53;;
5823;SDS011;2938;52.254;12.988;2022-07-24T01:56:38;3.75;;;3.45;;
5823;SDS011;2938;52.254;12.988;2022-07-24T01:59:04;3.00;;;2.47;;
5823;SDS011;2938;52.254;12.988;2022-07-24T02:01:31;7.03;;;2.65;;
5823;SDS011;2938;52.254;12.988;2022-07-24T02:04:03;3.22;;;2.22;;
5823;SDS011;2938;52.254;12.988;2022-07-24T02:06:30;2.88;;;2.40;;
5823;SDS011;2938;52.254;12.988;2022-07-24T02:08:56;3.65;;;3.13;;
5823;SDS011;2938;52.254;12.988;2022-07-24T02:11:22;2.30;;;2.15;;
5823;SDS011;2938;52.254;12.988;2022-07-24T02:13:50;4.50;;;2.55;;
5823;SDS011;2938;52.254;12.988;2022-07-24T02:16:17;2.42;;;2.22;;
5823;SDS011;2938;52.254;12.988;2022-07-24T02:18:43;5.82;;;3.08;;
5823;SDS011;2938;52.254;12.988;2022-07-24T02:21:10;2.97;;;2.40;;
5823;SDS011;2938;52.254;12.988;2022-07-24T02:23:36;4.45;;;2.88;;
5823;SDS011;2938;52.254;12.988;2022-07-24T02:26:03;4.20;;;2.70;;
5823;SDS011;2938;52.254;12.988;2022-07-24T02:28:30;3.05;;;2.63;;
5823;SDS011;2938;52.254;12.988;2022-07-24T02:30:58;5.03;;;3.00;;
5823;SDS011;2938;52.254;12.988;2022-07-24T02:33:24;4.90;;;2.78;;
5823;SDS011;2938;52.254;12.988;2022-07-24T02:35:50;5.15;;;2.83;;
5823;SDS011;2938;52.254;12.988;2022-07-24T02:38:17;3.03;;;2.83;;
5823;SDS011;2938;52.254;12.988;2022-07-24T02:40:43;2.65;;;2.45;;
5823;SDS011;2938;52.254;12.988;2022-07-24T02:43:10;2.50;;;2.22;;
5823;SDS011;2938;52.254;12.988;2022-07-24T02:45:36;3.30;;;2.55;;
5823;SDS011;2938;52.254;12.988;2022-07-24T02:48:04;2.42;;;2.22;;
5823;SDS011;2938;52.254;12.988;2022-07-24T02:50:31;5.57;;;3.00;;
5823;SDS011;2938;52.254;12.988;2022-07-24T02:53:00;2.25;;;2.03;;
5823;SDS011;2938;52.254;12.988;2022-07-24T02:55:26;3.95;;;2.95;;
5823;SDS011;2938;52.254;12.988;2022-07-24T02:57:53;3.70;;;2.75;;
5823;SDS011;2938;52.254;12.988;2022-07-24T03:00:20;3.25;;;2.95;;
5823;SDS011;2938;52.254;12.988;2022-07-24T03:02:48;3.22;;;2.67;;
5823;SDS011;2938;52.254;12.988;2022-07-24T03:05:15;4.85;;;3.05;;
5823;SDS011;2938;52.254;12.988;2022-07-24T03:07:42;6.72;;;2.92;;
5823;SDS011;2938;52.254;12.988;2022-07-24T03:10:09;7.82;;;3.38;;
5823;SDS011;2938;52.254;12.988;2022-07-24T03:12:36;4.00;;;3.33;;
5823;SDS011;2938;52.254;12.988;2022-07-24T03:15:03;4.57;;;3.08;;
5823;SDS011;2938;52.254;12.988;2022-07-24T03:17:30;3.53;;;3.13;;
5823;SDS011;2938;52.254;12.988;2022-07-24T03:19:56;2.70;;;2.50;;
5823;SDS011;2938;52.254;12.988;2022-07-24T03:22:24;3.13;;;2.63;;
5823;SDS011;2938;52.254;12.988;2022-07-24T03:24:51;5.75;;;3.33;;
5823;SDS011;2938;52.254;12.988;2022-07-24T03:27:17;3.85;;;2.45;;
5823;SDS011;2938;52.254;12.988;2022-07-24T03:29:43;6.78;;;2.95;;
5823;SDS011;2938;52.254;12.988;2022-07-24T03:32:10;2.78;;;2.58;;
5823;SDS011;2938;52.254;12.988;2022-07-24T03:34:36;2.13;;;1.92;;
5823;SDS011;2938;52.254;12.988;2022-07-24T03:37:02;4.72;;;3.60;;
5823;SDS011;2938;52.254;12.988;2022-07-24T03:39:30;3.05;;;2.63;;
5823;SDS011;2938;52.254;12.988;2022-07-24T03:41:56;4.75;;;4.00;;
5823;SDS011;2938;52.254;12.988;2022-07-24T03:44:23;3.55;;;2.60;;
5823;SDS011;2938;52.254;12.988;2022-07-24T03:46:49;7.45;;;3.25;;
5823;SDS011;2938;52.254;12.988;2022-07-24T03:49:16;11.55;;;2.85;;
5823;SDS011;2938;52.254;12.988;2022-07-24T03:51:42;3.60;;;2.90;;
5823;SDS011;2938;52.254;12.988;2022-07-24T03:54:08;3.30;;;3.00;;
5823;SDS011;2938;52.254;12.988;2022-07-24T03:56:36;3.72;;;3.40;;
5823;SDS011;2938;52.254;12.988;2022-07-24T03:59:02;2.97;;;2.67;;
5823;SDS011;2938;52.254;12.988;2022-07-24T04:01:29;4.20;;;3.80;;
5823;SDS011;2938;52.254;12.988;2022-07-24T04:03:55;3.65;;;2.88;;
5823;SDS011;2938;52.254;12.988;2022-07-24T04:06:26;4.30;;;3.03;;
5823;SDS011;2938;52.254;12.988;2022-07-24T04:08:52;4.22;;;3.70;;
5823;SDS011;2938;52.254;12.988;2022-07-24T04:11:19;4.85;;;3.05;;
5823;SDS011;2938;52.254;12.988;2022-07-24T04:13:46;5.93;;;3.28;;
5823;SDS011;2938;52.254;12.988;2022-07-24T04:16:17;4.30;;;3.47;;
5823;SDS011;2938;52.254;12.988;2022-07-24T04:18:49;3.50;;;2.92;;
5823;SDS011;2938;52.254;12.988;2022-07-24T04:21:15;4.13;;;3.70;;
5823;SDS011;2938;52.254;12.988;2022-07-24T04:23:42;5.93;;;4.13;;
5823;SDS011;2938;52.254;12.988;2022-07-24T04:26:08;3.78;;;3.42;;
5823;SDS011;2938;52.254;12.988;2022-07-24T04:28:35;6.53;;;3.20;;
5823;SDS011;2938;52.254;12.988;2022-07-24T04:31:03;4.55;;;2.90;;
5823;SDS011;2938;52.254;12.988;2022-07-24T04:33:29;3.20;;;3.00;;
5823;SDS011;2938;52.254;12.988;2022-07-24T04:35:56;4.32;;;3.45;;
5823;SDS011;2938;52.254;12.988;2022-07-24T04:38:23;3.90;;;3.28;;
5823;SDS011;2938;52.254;12.988;2022-07-24T04:43:54;4.53;;;3.15;;
5823;SDS011;2938;52.254;12.988;2022-07-24T04:46:22;2.63;;;2.42;;
5823;SDS011;2938;52.254;12.988;2022-07-24T04:48:48;2.38;;;2.15;;
5823;SDS011;2938;52.254;12.988;2022-07-24T04:51:14;5.85;;;2.83;;
5823;SDS011;2938;52.254;12.988;2022-07-24T04:53:41;5.68;;;2.70;;
5823;SDS011;2938;52.254;12.988;2022-07-24T04:56:07;8.18;;;2.95;;
5823;SDS011;2938;52.254;12.988;2022-07-24T04:58:33;2.97;;;2.53;;
5823;SDS011;2938;52.254;12.988;2022-07-24T05:01:00;4.45;;;2.80;;
5823;SDS011;2938;52.254;12.988;2022-07-24T05:03:28;7.22;;;2.97;;
5823;SDS011;2938;52.254;12.988;2022-07-24T05:05:54;3.60;;;2.72;;
5823;SDS011;2938;52.254;12.988;2022-07-24T05:08:20;3.55;;;2.08;;
5823;SDS011;2938;52.254;12.988;2022-07-24T05:10:47;6.60;;;3.13;;
5823;SDS011;2938;52.254;12.988;2022-07-24T05:13:13;5.32;;;2.63;;
5823;SDS011;2938;52.254;12.988;2022-07-24T05:15:39;2.08;;;1.88;;
5823;SDS011;2938;52.254;12.988;2022-07-24T05:18:06;3.35;;;2.38;;
5823;SDS011;2938;52.254;12.988;2022-07-24T05:20:34;4.30;;;2.40;;
5823;SDS011;2938;52.254;12.988;2022-07-24T05:23:00;11.90;;;2.20;;
5823;SDS011;2938;52.254;12.988;2022-07-24T05:25:26;2.47;;;1.90;;
5823;SDS011;2938;52.254;12.988;2022-07-24T05:27:53;2.30;;;1.73;;
5823;SDS011;2938;52.254;12.988;2022-07-24T05:30:19;5.30;;;1.80;;
5823;SDS011;2938;52.254;12.988;2022-07-24T05:32:46;3.30;;;1.40;;
5823;SDS011;2938;52.254;12.988;2022-07-24T05:35:12;3.75;;;1.35;;
5823;SDS011;2938;52.254;12.988;2022-07-24T05:37:40;1.45;;;1.17;;
5823;SDS011;2938;52.254;12.988;2022-07-24T05:40:07;3.17;;;1.63;;
5823;SDS011;2938;52.254;12.988;2022-07-24T05:42:36;3.80;;;1.77;;
5823;SDS011;2938;52.254;12.988;2022-07-24T05:45:04;3.20;;;1.70;;
5823;SDS011;2938;52.254;12.988;2022-07-24T05:47:34;3.15;;;1.42;;
5823;SDS011;2938;52.254;12.988;2022-07-24T05:50:04;1.67;;;1.02;;
5823;SDS011;2938;52.254;12.988;2022-07-24T05:52:32;1.88;;;1.27;;
5823;SDS011;2938;52.254;12.988;2022-07-24T05:55:00;0.88;;;0.88;;
5823;SDS011;2938;52.254;12.988;2022-07-24T05:57:32;8.18;;;2.25;;
5823;SDS011;2938;52.254;12.988;2022-07-24T05:59:58;1.70;;;1.10;;
5823;SDS011;2938;52.254;12.988;2022-07-24T06:02:25;1.92;;;0.93;;
5823;SDS011;2938;52.254;12.988;2022-07-24T06:04:51;1.25;;;1.13;;
5823;SDS011;2938;52.254;12.988;2022-07-24T06:07:17;1.75;;;1.30;;
5823;SDS011;2938;52.254;12.988;2022-07-24T06:09:44;0.82;;;0.70;;
5823;SDS011;2938;52.254;12.988;2022-07-24T06:12:11;2.97;;;0.80;;
5823;SDS011;2938;52.254;12.988;2022-07-24T06:14:38;1.27;;;1.10;;
5823;SDS011;2938;52.254;12.988;2022-07-24T06:17:04;2.35;;;0.80;;
5823;SDS011;2938;52.254;12.988;2022-07-24T06:19:30;1.55;;;0.95;;
5823;SDS011;2938;52.254;12.988;2022-07-24T06:21:57;3.40;;;1.40;;
5823;SDS011;2938;52.254;12.988;2022-07-24T06:24:23;7.75;;;1.33;;
5823;SDS011;2938;52.254;12.988;2022-07-24T06:26:53;2.50;;;1.20;;
5823;SDS011;2938;52.254;12.988;2022-07-24T06:29:21;2.53;;;0.70;;
5823;SDS011;2938;52.254;12.988;2022-07-24T06:31:47;2.90;;;1.50;;
5823;SDS011;2938;52.254;12.988;2022-07-24T06:34:14;5.35;;;1.25;;
5823;SDS011;2938;52.254;12.988;2022-07-24T06:36:40;2.95;;;1.00;;
5823;SDS011;2938;52.254;12.988;2022-07-24T06:39:06;4.88;;;1.50;;
5823;SDS011;2938;52.254;12.988;2022-07-24T06:41:33;2.38;;;1.40;;
5823;SDS011;2938;52.254;12.988;2022-07-24T06:43:59;5.22;;;1.35;;
5823;SDS011;2938;52.254;12.988;2022-07-24T06:46:27;1.35;;;0.90;;
5823;SDS011;2938;52.254;12.988;2022-07-24T06:48:56;5.53;;;1.60;;
5823;SDS011;2938;52.254;12.988;2022-07-24T06:51:23;1.92;;;1.40;;
5823;SDS011;2938;52.254;12.988;2022-07-24T06:53:49;3.58;;;1.42;;
5823;SDS011;2938;52.254;12.988;2022-07-24T06:56:15;5.20;;;1.38;;
5823;SDS011;2938;52.254;12.988;2022-07-24T06:58:42;2.30;;;1.60;;
5823;SDS011;2938;52.254;12.988;2022-07-24T07:01:08;3.83;;;1.10;;
5823;SDS011;2938;52.254;12.988;2022-07-24T07:03:36;1.67;;;0.82;;
5823;SDS011;2938;52.254;12.988;2022-07-24T07:06:03;1.42;;;1.20;;
5823;SDS011;2938;52.254;12.988;2022-07-24T07:08:29;5.10;;;1.10;;
5823;SDS011;2938;52.254;12.988;2022-07-24T07:10:59;1.77;;;1.45;;
5823;SDS011;2938;52.254;12.988;2022-07-24T07:13:25;1.85;;;1.40;;
5823;SDS011;2938;52.254;12.988;2022-07-24T07:15:52;3.17;;;1.10;;
5823;SDS011;2938;52.254;12.988;2022-07-24T07:18:18;2.10;;;1.00;;
5823;SDS011;2938;52.254;12.988;2022-07-24T07:20:46;1.08;;;0.95;;
5823;SDS011;2938;52.254;12.988;2022-07-24T07:23:18;1.42;;;1.10;;
5823;SDS011;2938;52.254;12.988;2022-07-24T07:25:44;5.45;;;1.10;;
5823;SDS011;2938;52.254;12.988;2022-07-24T07:28:11;3.35;;;1.27;;
5823;SDS011;2938;52.254;12.988;2022-07-24T07:30:37;1.75;;;1.15;;
5823;SDS011;2938;52.254;12.988;2022-07-24T07:33:03;1.50;;;1.20;;
5823;SDS011;2938;52.254;12.988;2022-07-24T07:35:30;12.73;;;1.50;;
5823;SDS011;2938;52.254;12.988;2022-07-24T07:37:57;5.07;;;1.52;;
5823;SDS011;2938;52.254;12.988;2022-07-24T07:40:25;2.05;;;1.33;;
5823;SDS011;2938;52.254;12.988;2022-07-24T07:42:51;7.82;;;1.70;;
5823;SDS011;2938;52.254;12.988;2022-07-24T07:45:20;1.42;;;1.10;;
5823;SDS011;2938;52.254;12.988;2022-07-24T07:47:47;2.08;;;1.40;;
5823;SDS011;2938;52.254;12.988;2022-07-24T07:50:13;3.90;;;1.80;;
5823;SDS011;2938;52.254;12.988;2022-07-24T07:52:39;1.50;;;1.00;;
5823;SDS011;2938;52.254;12.988;2022-07-24T07:55:08;2.35;;;1.23;;
5823;SDS011;2938;52.254;12.988;2022-07-24T07:57:41;3.25;;;1.77;;
5823;SDS011;2938;52.254;12.988;2022-07-24T08:00:09;3.15;;;1.08;;
5823;SDS011;2938;52.254;12.988;2022-07-24T08:02:41;4.93;;;1.35;;
5823;SDS011;2938;52.254;12.988;2022-07-24T08:05:08;1.75;;;1.10;;
5823;SDS011;2938;52.254;12.988;2022-07-24T08:07:35;1.88;;;1.65;;
5823;SDS011;2938;52.254;12.988;2022-07-24T08:10:01;2.30;;;1.67;;
5823;SDS011;2938;52.254;12.988;2022-07-24T08:12:29;1.95;;;1.52;;
5823;SDS011;2938;52.254;12.988;2022-07-24T08:14:55;3.00;;;1.33;;
5823;SDS011;2938;52.254;12.988;2022-07-24T08:17:22;4.18;;;1.17;;
5823;SDS011;2938;52.254;12.988;2022-07-24T08:19:48;1.00;;;0.70;;
5823;SDS011;2938;52.254;12.988;2022-07-24T08:22:14;4.28;;;1.30;;
5823;SDS011;2938;52.254;12.988;2022-07-24T08:24:41;3.85;;;1.58;;
5823;SDS011;2938;52.254;12.988;2022-07-24T08:27:07;3.33;;;1.23;;
5823;SDS011;2938;52.254;12.988;2022-07-24T08:29:35;4.85;;;1.27;;
5823;SDS011;2938;52.254;12.988;2022-07-24T08:32:01;3.75;;;1.20;;
5823;SDS011;2938;52.254;12.988;2022-07-24T08:34:27;2.88;;;1.20;;
5823;SDS011;2938;52.254;12.988;2022-07-24T08:36:54;2.33;;;1.83;;
5823;SDS011;2938;52.254;12.988;2022-07-24T08:39:20;3.20;;;1.30;;
5823;SDS011;2938;52.254;12.988;2022-07-24T08:41:46;2.13;;;1.02;;
5823;SDS011;2938;52.254;12.988;2022-07-24T08:44:15;3.13;;;1.05;;
5823;SDS011;2938;52.254;12.988;2022-07-24T08:46:42;9.32;;;1.35;;
5823;SDS011;2938;52.254;12.988;2022-07-24T08:49:09;2.67;;;1.40;;
5823;SDS011;2938;52.254;12.988;2022-07-24T08:51:37;4.57;;;1.10;;
5823;SDS011;2938;52.254;12.988;2022-07-24T08:54:05;1.23;;;1.02;;
5823;SDS011;2938;52.254;12.988;2022-07-24T08:56:31;1.02;;;0.82;;
5823;SDS011;2938;52.254;12.988;2022-07-24T08:59:01;1.52;;;1.15;;
5823;SDS011;2938;52.254;12.988;2022-07-24T09:01:27;1.02;;;0.93;;
5823;SDS011;2938;52.254;12.988;2022-07-24T09:03:55;1.95;;;1.33;;
5823;SDS011;2938;52.254;12.988;2022-07-24T09:06:21;2.58;;;1.23;;
5823;SDS011;2938;52.254;12.988;2022-07-24T09:08:56;1.05;;;0.88;;
5823;SDS011;2938;52.254;12.988;2022-07-24T09:11:23;3.30;;;1.27;;
5823;SDS011;2938;52.254;12.988;2022-07-24T09:13:50;1.40;;;1.10;;
5823;SDS011;2938;52.254;12.988;2022-07-24T09:16:35;1.33;;;1.15;;
5823;SDS011;2938;52.254;12.988;2022-07-24T09:19:05;2.42;;;1.08;;
5823;SDS011;2938;52.254;12.988;2022-07-24T09:21:33;3.33;;;2.05;;
5823;SDS011;2938;52.254;12.988;2022-07-24T09:24:00;2.13;;;1.10;;
5823;SDS011;2938;52.254;12.988;2022-07-24T09:26:34;2.47;;;1.17;;
5823;SDS011;2938;52.254;12.988;2022-07-24T09:29:09;1.23;;;1.13;;
5823;SDS011;2938;52.254;12.988;2022-07-24T09:31:48;1.30;;;1.20;;
5823;SDS011;2938;52.254;12.988;2022-07-24T09:34:17;1.23;;;1.10;;
5823;SDS011;2938;52.254;12.988;2022-07-24T09:36:50;1.80;;;1.30;;
5823;SDS011;2938;52.254;12.988;2022-07-24T09:39:21;1.63;;;0.90;;
5823;SDS011;2938;52.254;12.988;2022-07-24T09:41:49;3.97;;;1.60;;
5823;SDS011;2938;52.254;12.988;2022-07-24T09:44:16;3.90;;;1.33;;
5823;SDS011;2938;52.254;12.988;2022-07-24T09:46:45;4.32;;;1.50;;
5823;SDS011;2938;52.254;12.988;2022-07-24T09:49:18;4.13;;;1.30;;
5823;SDS011;2938;52.254;12.988;2022-07-24T09:51:44;2.70;;;1.52;;
5823;SDS011;2938;52.254;12.988;2022-07-24T09:54:11;4.70;;;1.23;;
5823;SDS011;2938;52.254;12.988;2022-07-24T09:56:37;1.13;;;0.90;;
5823;SDS011;2938;52.254;12.988;2022-07-24T09:59:04;2.50;;;1.10;;
5823;SDS011;2938;52.254;12.988;2022-07-24T10:01:32;4.45;;;1.20;;
5823;SDS011;2938;52.254;12.988;2022-07-24T10:03:59;1.85;;;1.55;;
5823;SDS011;2938;52.254;12.988;2022-07-24T10:06:28;3.47;;;1.45;;
5823;SDS011;2938;52.254;12.988;2022-07-24T10:08:55;1.33;;;1.20;;
5823;SDS011;2938;52.254;12.988;2022-07-24T10:11:22;1.90;;;1.50;;
5823;SDS011;2938;52.254;12.988;2022-07-24T10:13:49;1.30;;;1.20;;
5823;SDS011;2938;52.254;12.988;2022-07-24T10:16:26;1.63;;;1.25;;
5823;SDS011;2938;52.254;12.988;2022-07-24T10:18:55;1.13;;;0.75;;
5823;SDS011;2938;52.254;12.988;2022-07-24T10:21:23;4.55;;;1.60;;
5823;SDS011;2938;52.254;12.988;2022-07-24T10:23:58;1.50;;;1.20;;
5823;SDS011;2938;52.254;12.988;2022-07-24T10:26:38;2.22;;;1.42;;
5823;SDS011;2938;52.254;12.988;2022-07-24T10:29:06;1.40;;;1.30;;
5823;SDS011;2938;52.254;12.988;2022-07-24T10:31:35;4.53;;;1.70;;
5823;SDS011;2938;52.254;12.988;2022-07-24T10:34:03;3.63;;;1.63;;
5823;SDS011;2938;52.254;12.988;2022-07-24T10:36:33;5.55;;;1.83;;
5823;SDS011;2938;52.254;12.988;2022-07-24T10:39:05;6.28;;;1.63;;
5823;SDS011;2938;52.254;12.988;2022-07-24T10:41:36;4.07;;;1.15;;
5823;SDS011;2938;52.254;12.988;2022-07-24T10:44:12;1.20;;;1.10;;
5823;SDS011;2938;52.254;12.988;2022-07-24T10:46:56;2.55;;;1.70;;
5823;SDS011;2938;52.254;12.988;2022-07-24T10:49:35;2.03;;;1.33;;
5823;SDS011;2938;52.254;12.988;2022-07-24T10:52:09;1.42;;;1.02;;
5823;SDS011;2938;52.254;12.988;2022-07-24T10:54:38;3.35;;;1.67;;
5823;SDS011;2938;52.254;12.988;2022-07-24T10:57:04;2.03;;;1.42;;
5823;SDS011;2938;52.254;12.988;2022-07-24T10:59:32;1.88;;;1.77;;
5823;SDS011;2938;52.254;12.988;2022-07-24T11:08:12;1.98;;;1.10;;
5823;SDS011;2938;52.254;12.988;2022-07-24T11:10:59;5.22;;;1.73;;
5823;SDS011;2938;52.254;12.988;2022-07-24T11:13:41;1.13;;;1.13;;
5823;SDS011;2938;52.254;12.988;2022-07-24T11:16:22;2.72;;;1.50;;
5823;SDS011;2938;52.254;12.988;2022-07-24T11:22:08;1.45;;;1.38;;
5823;SDS011;2938;52.254;12.988;2022-07-24T11:24:39;1.80;;;1.50;;
5823;SDS011;2938;52.254;12.988;2022-07-24T11:27:14;2.40;;;1.23;;
5823;SDS011;2938;52.254;12.988;2022-07-24T11:29:43;2.35;;;1.45;;
5823;SDS011;2938;52.254;12.988;2022-07-24T11:32:11;2.10;;;1.52;;
5823;SDS011;2938;52.254;12.988;2022-07-24T11:34:43;1.90;;;1.30;;
5823;SDS011;2938;52.254;12.988;2022-07-24T11:37:10;2.50;;;1.30;;
5823;SDS011;2938;52.254;12.988;2022-07-24T11:39:38;1.50;;;1.40;;
5823;SDS011;2938;52.254;12.988;2022-07-24T11:42:05;2.03;;;1.05;;
5823;SDS011;2938;52.254;12.988;2022-07-24T11:44:34;1.55;;;1.45;;
5823;SDS011;2938;52.254;12.988;2022-07-24T11:47:05;3.30;;;1.67;;
5823;SDS011;2938;52.254;12.988;2022-07-24T11:49:38;2.40;;;1.38;;
5823;SDS011;2938;52.254;12.988;2022-07-24T11:52:05;1.40;;;1.30;;
5823;SDS011;2938;52.254;12.988;2022-07-24T11:54:32;2.92;;;1.50;;
5823;SDS011;2938;52.254;12.988;2022-07-24T11:56:58;5.38;;;1.65;;
5823;SDS011;2938;52.254;12.988;2022-07-24T11:59:25;1.55;;;1.27;;
5823;SDS011;2938;52.254;12.988;2022-07-24T12:02:02;1.58;;;1.23;;
5823;SDS011;2938;52.254;12.988;2022-07-24T12:04:29;2.42;;;1.92;;
5823;SDS011;2938;52.254;12.988;2022-07-24T12:06:55;2.45;;;1.42;;
5823;SDS011;2938;52.254;12.988;2022-07-24T12:09:21;1.50;;;1.40;;
5823;SDS011;2938;52.254;12.988;2022-07-24T12:11:48;1.60;;;1.50;;
5823;SDS011;2938;52.254;12.988;2022-07-24T12:14:15;1.70;;;1.60;;
5823;SDS011;2938;52.254;12.988;2022-07-24T12:16:42;1.85;;;1.42;;
5823;SDS011;2938;52.254;12.988;2022-07-24T12:19:14;2.17;;;1.95;;
5823;SDS011;2938;52.254;12.988;2022-07-24T12:21:41;2.03;;;1.50;;
5823;SDS011;2938;52.254;12.988;2022-07-24T12:24:08;1.65;;;1.48;;
5823;SDS011;2938;52.254;12.988;2022-07-24T12:26:41;1.83;;;1.60;;
5823;SDS011;2938;52.254;12.988;2022-07-24T12:29:13;2.60;;;1.40;;
5823;SDS011;2938;52.254;12.988;2022-07-24T12:31:40;2.88;;;1.75;;
5823;SDS011;2938;52.254;12.988;2022-07-24T12:34:06;2.58;;;1.48;;
5823;SDS011;2938;52.254;12.988;2022-07-24T12:36:34;2.47;;;1.38;;
5823;SDS011;2938;52.254;12.988;2022-07-24T12:39:02;1.40;;;1.30;;
5823;SDS011;2938;52.254;12.988;2022-07-24T12:41:40;2.72;;;1.60;;
5823;SDS011;2938;52.254;12.988;2022-07-24T12:44:08;3.97;;;1.70;;
5823;SDS011;2938;52.254;12.988;2022-07-24T12:46:35;4.00;;;1.50;;
5823;SDS011;2938;52.254;12.988;2022-07-24T12:49:03;5.90;;;1.80;;
5823;SDS011;2938;52.254;12.988;2022-07-24T12:51:44;1.50;;;1.30;;
5823;SDS011;2938;52.254;12.988;2022-07-24T12:54:14;1.70;;;1.60;;
5823;SDS011;2938;52.254;12.988;2022-07-24T12:56:42;1.30;;;1.23;;
5823;SDS011;2938;52.254;12.988;2022-07-24T12:59:09;1.88;;;1.60;;
5823;SDS011;2938;52.254;12.988;2022-07-24T13:01:43;1.20;;;1.13;;
5823;SDS011;2938;52.254;12.988;2022-07-24T13:04:11;1.27;;;1.05;;
5823;SDS011;2938;52.254;12.988;2022-07-24T13:06:41;3.08;;;1.45;;
5823;SDS011;2938;52.254;12.988;2022-07-24T13:09:10;1.90;;;1.02;;
5823;SDS011;2938;52.254;12.988;2022-07-24T13:11:38;1.80;;;1.60;;
5823;SDS011;2938;52.254;12.988;2022-07-24T13:14:04;1.70;;;1.60;;
5823;SDS011;2938;52.254;12.988;2022-07-24T13:16:33;3.70;;;1.83;;
5823;SDS011;2938;52.254;12.988;2022-07-24T13:19:00;3.65;;;1.23;;
5823;SDS011;2938;52.254;12.988;2022-07-24T13:21:28;2.13;;;1.33;;
5823;SDS011;2938;52.254;12.988;2022-07-24T13:23:54;4.40;;;1.67;;
5823;SDS011;2938;52.254;12.988;2022-07-24T13:26:22;3.00;;;1.73;;
5823;SDS011;2938;52.254;12.988;2022-07-24T13:28:49;1.00;;;1.00;;
5823;SDS011;2938;52.254;12.988;2022-07-24T13:31:15;1.58;;;1.48;;
5823;SDS011;2938;52.254;12.988;2022-07-24T13:33:44;1.30;;;1.20;;
5823;SDS011;2938;52.254;12.988;2022-07-24T13:36:11;1.38;;;1.27;;
5823;SDS011;2938;52.254;12.988;2022-07-24T13:38:37;3.97;;;1.35;;
5823;SDS011;2938;52.254;12.988;2022-07-24T13:41:04;2.58;;;1.88;;
5823;SDS011;2938;52.254;12.988;2022-07-24T13:43:32;1.13;;;1.02;;
5823;SDS011;2938;52.254;12.988;2022-07-24T13:45:58;1.80;;;1.52;;
5823;SDS011;2938;52.254;12.988;2022-07-24T13:48:25;1.65;;;1.55;;
5823;SDS011;2938;52.254;12.988;2022-07-24T13:50:51;1.65;;;1.55;;
5823;SDS011;2938;52.254;12.988;2022-07-24T13:53:17;3.15;;;1.67;;
5823;SDS011;2938;52.254;12.988;2022-07-24T13:55:44;1.67;;;1.58;;
5823;SDS011;2938;52.254;12.988;2022-07-24T13:58:11;1.55;;;1.45;;
5823;SDS011;2938;52.254;12.988;2022-07-24T14:00:39;1.65;;;1.55;;
5823;SDS011;2938;52.254;12.988;2022-07-24T14:03:09;1.48;;;1.38;;
5823;SDS011;2938;52.254;12.988;2022-07-24T14:05:35;1.60;;;1.42;;
5823;SDS011;2938;52.254;12.988;2022-07-24T14:08:02;1.45;;;1.35;;
5823;SDS011;2938;52.254;12.988;2022-07-24T14:10:28;4.65;;;1.92;;
5823;SDS011;2938;52.254;12.988;2022-07-24T14:12:55;1.63;;;1.40;;
5823;SDS011;2938;52.254;12.988;2022-07-24T14:15:21;1.70;;;1.60;;
5823;SDS011;2938;52.254;12.988;2022-07-24T14:17:50;4.00;;;1.60;;
5823;SDS011;2938;52.254;12.988;2022-07-24T14:20:16;1.63;;;1.50;;
5823;SDS011;2938;52.254;12.988;2022-07-24T14:22:42;4.88;;;1.75;;
5823;SDS011;2938;52.254;12.988;2022-07-24T14:25:09;1.88;;;1.77;;
5823;SDS011;2938;52.254;12.988;2022-07-24T14:27:35;1.83;;;1.73;;
5823;SDS011;2938;52.254;12.988;2022-07-24T14:30:04;3.97;;;1.45;;
5823;SDS011;2938;52.254;12.988;2022-07-24T14:32:31;3.08;;;1.90;;
5823;SDS011;2938;52.254;12.988;2022-07-24T14:35:00;2.45;;;1.80;;
5823;SDS011;2938;52.254;12.988;2022-07-24T14:37:31;3.75;;;1.65;;
5823;SDS011;2938;52.254;12.988;2022-07-24T14:39:58;1.95;;;1.83;;
5823;SDS011;2938;52.254;12.988;2022-07-24T14:42:24;5.10;;;1.95;;
5823;SDS011;2938;52.254;12.988;2022-07-24T14:44:50;4.43;;;2.42;;
5823;SDS011;2938;52.254;12.988;2022-07-24T14:47:17;2.92;;;1.80;;
5823;SDS011;2938;52.254;12.988;2022-07-24T14:49:43;7.68;;;2.33;;
5823;SDS011;2938;52.254;12.988;2022-07-24T14:52:11;2.17;;;1.88;;
5823;SDS011;2938;52.254;12.988;2022-07-24T14:54:40;4.90;;;2.10;;
5823;SDS011;2938;52.254;12.988;2022-07-24T14:57:07;1.45;;;1.35;;
5823;SDS011;2938;52.254;12.988;2022-07-24T14:59:33;1.50;;;1.30;;
5823;SDS011;2938;52.254;12.988;2022-07-24T15:02:00;2.60;;;1.45;;
5823;SDS011;2938;52.254;12.988;2022-07-24T15:04:26;1.50;;;1.40;;
5823;SDS011;2938;52.254;12.988;2022-07-24T15:06:52;2.65;;;1.75;;
5823;SDS011;2938;52.254;12.988;2022-07-24T15:09:20;2.38;;;1.50;;
5823;SDS011;2938;52.254;12.988;2022-07-24T15:11:46;2.17;;;1.80;;
5823;SDS011;2938;52.254;12.988;2022-07-24T15:14:13;1.55;;;1.45;;
5823;SDS011;2938;52.254;12.988;2022-07-24T15:16:39;3.63;;;1.70;;